Time;durP1;ratioP1;P1;durP2;ratioP2;P2;SDS_P1;SDS_P2;PMS_P1;PMS_P2;Temp;Humidity;BMP_temperature;BMP_pressure;BME280_temperature;BME280_humidity;BME280_pressure;Samples;Min_cycle;Max_cycle;Signal;HPM_P1;HPM_P2
2021/11/22 00:02:25;;;;;;;0.00;0.00;;;;;;;;;;5980441;24;20030;-88
2021/11/22 00:04:51;;;;;;;0.10;0.10;;;;;;;;;;6004322;23;20072;-88
2021/11/22 00:07:17;;;;;;;0.10;0.10;;;;;;;;;;5980567;24;20016;-88
2021/11/22 00:09:44;;;;;;;0.10;0.10;;;;;;;;;;6003842;23;20083;-88
2021/11/22 00:12:10;;;;;;;0.10;0.10;;;;;;;;;;5980519;24;20075;-88
2021/11/22 00:14:36;;;;;;;0.10;0.10;;;;;;;;;;5980551;24;20023;-88
2021/11/22 00:17:02;;;;;;;0.10;0.10;;;;;;;;;;5980476;24;20454;-88
2021/11/22 00:19:29;;;;;;;0.10;0.10;;;;;;;;;;5980543;24;20016;-88
2021/11/22 00:21:55;;;;;;;0.10;0.10;;;;;;;;;;5980544;24;20020;-88
2021/11/22 00:24:21;;;;;;;0.10;0.10;;;;;;;;;;5980684;24;20012;-89
2021/11/22 00:26:47;;;;;;;0.10;0.10;;;;;;;;;;6003681;23;20016;-88
2021/11/22 00:29:13;;;;;;;0.10;0.10;;;;;;;;;;6003848;23;20031;-88
2021/11/22 00:31:41;;;;;;;0.10;0.10;;;;;;;;;;5980373;24;20020;-88
2021/11/22 00:34:07;;;;;;;0.10;0.10;;;;;;;;;;6003769;23;20020;-88
2021/11/22 00:36:33;;;;;;;0.10;0.10;;;;;;;;;;5980309;24;20087;-89
2021/11/22 00:38:59;;;;;;;0.00;0.00;;;;;;;;;;5980276;24;20157;-88
2021/11/22 00:41:25;;;;;;;0.10;0.10;;;;;;;;;;6003655;23;20054;-88
2021/11/22 00:43:51;;;;;;;0.10;0.10;;;;;;;;;;6003449;23;20515;-88
2021/11/22 00:46:17;;;;;;;0.10;0.10;;;;;;;;;;5980195;24;20016;-88
2021/11/22 00:48:43;;;;;;;0.10;0.10;;;;;;;;;;6003536;23;20347;-88
2021/11/22 00:51:09;;;;;;;0.10;0.10;;;;;;;;;;5980060;24;20127;-88
2021/11/22 00:53:35;;;;;;;0.10;0.10;;;;;;;;;;5980200;24;20016;-88
2021/11/22 00:56:01;;;;;;;0.10;0.10;;;;;;;;;;5980063;24;20058;-88
2021/11/22 00:58:27;;;;;;;0.10;0.10;;;;;;;;;;5979999;24;20406;-88
2021/11/22 01:00:53;;;;;;;0.10;0.10;;;;;;;;;;5980270;24;20051;-88
2021/11/22 01:03:19;;;;;;;0.10;0.10;;;;;;;;;;6003456;23;20530;-88
2021/11/22 01:05:45;;;;;;;0.10;0.10;;;;;;;;;;6003747;23;20012;-88
2021/11/22 01:08:11;;;;;;;0.10;0.10;;;;;;;;;;6003534;23;20024;-88
2021/11/22 01:10:39;;;;;;;0.03;0.03;;;;;;;;;;5980346;24;20024;-88
2021/11/22 01:13:04;;;;;;;0.00;0.00;;;;;;;;;;5980168;24;20442;-88
2021/11/22 01:15:33;;;;;;;0.10;0.10;;;;;;;;;;5980154;24;20022;-88
2021/11/22 01:17:59;;;;;;;0.10;0.10;;;;;;;;;;6003379;23;20016;-88
2021/11/22 01:20:29;;;;;;;0.10;0.10;;;;;;;;;;6003372;23;20410;-88
2021/11/22 01:22:59;;;;;;;0.10;0.10;;;;;;;;;;6004000;23;20035;-88
2021/11/22 01:25:24;;;;;;;0.00;0.00;;;;;;;;;;5980336;24;20017;-88
2021/11/22 01:27:51;;;;;;;0.00;0.00;;;;;;;;;;5979980;24;20102;-88
2021/11/22 01:30:17;;;;;;;0.10;0.10;;;;;;;;;;5979962;24;20027;-88
2021/11/22 01:32:44;;;;;;;0.00;0.00;;;;;;;;;;5980258;24;20091;-88
2021/11/22 01:35:11;;;;;;;0.10;0.10;;;;;;;;;;5980051;24;20327;-89
2021/11/22 01:37:37;;;;;;;0.00;0.00;;;;;;;;;;5979818;24;20459;-88
2021/11/22 01:40:06;;;;;;;0.00;0.00;;;;;;;;;;5980156;24;20148;-87
2021/11/22 01:42:32;;;;;;;0.10;0.10;;;;;;;;;;5979855;24;20024;-87
2021/11/22 01:44:58;;;;;;;0.10;0.10;;;;;;;;;;5980085;24;20012;-88
2021/11/22 01:47:24;;;;;;;0.05;0.05;;;;;;;;;;5980030;24;20068;-88
2021/11/22 01:49:50;;;;;;;0.10;0.10;;;;;;;;;;6003341;23;20021;-87
2021/11/22 01:52:16;;;;;;;0.00;0.00;;;;;;;;;;5979846;24;20392;-88
2021/11/22 01:54:42;;;;;;;0.00;0.00;;;;;;;;;;5979800;24;20095;-88
2021/11/22 01:57:08;;;;;;;0.10;0.10;;;;;;;;;;5979854;24;20462;-88
2021/11/22 01:59:34;;;;;;;0.10;0.10;;;;;;;;;;6003273;23;20020;-88
2021/11/22 02:02:01;;;;;;;0.10;0.10;;;;;;;;;;5979850;24;20123;-88
2021/11/22 02:04:27;;;;;;;0.03;0.03;;;;;;;;;;6003416;23;20019;-87
2021/11/22 02:06:53;;;;;;;0.10;0.10;;;;;;;;;;5979762;24;20069;-87
2021/11/22 02:09:19;;;;;;;0.08;0.08;;;;;;;;;;5979946;24;20020;-88
2021/11/22 02:11:45;;;;;;;0.00;0.00;;;;;;;;;;5979701;24;20446;-88
2021/11/22 02:14:11;;;;;;;0.00;0.00;;;;;;;;;;5979921;24;20497;-87
2021/11/22 02:16:37;;;;;;;0.00;0.00;;;;;;;;;;5979909;24;20397;-88
2021/11/22 02:19:03;;;;;;;0.10;0.10;;;;;;;;;;5979782;24;20016;-88
2021/11/22 02:21:30;;;;;;;0.00;0.00;;;;;;;;;;6003374;23;20016;-88
2021/11/22 02:23:56;;;;;;;0.00;0.00;;;;;;;;;;5980091;24;20017;-88
2021/11/22 02:26:22;;;;;;;0.10;0.10;;;;;;;;;;6003239;23;20012;-87
2021/11/22 02:28:48;;;;;;;0.10;0.10;;;;;;;;;;5979717;24;20020;-87
2021/11/22 02:31:14;;;;;;;0.10;0.10;;;;;;;;;;5980047;24;20016;-88
2021/11/22 02:33:40;;;;;;;0.00;0.00;;;;;;;;;;5981440;24;20355;-87
2021/11/22 02:36:06;;;;;;;0.10;0.10;;;;;;;;;;5981481;24;20031;-88
2021/11/22 02:38:33;;;;;;;0.10;0.10;;;;;;;;;;5981305;24;20020;-87
2021/11/22 02:41:00;;;;;;;0.10;0.10;;;;;;;;;;5981685;24;20099;-88
2021/11/22 02:43:27;;;;;;;0.00;0.00;;;;;;;;;;5981422;24;20023;-88
2021/11/22 02:45:53;;;;;;;0.10;0.10;;;;;;;;;;5981391;24;20016;-87
2021/11/22 02:48:19;;;;;;;0.10;0.10;;;;;;;;;;5981154;24;20087;-88
2021/11/22 02:50:45;;;;;;;0.10;0.10;;;;;;;;;;6004930;23;20052;-88
2021/11/22 02:53:12;;;;;;;0.10;0.10;;;;;;;;;;5981471;24;20023;-88
2021/11/22 02:55:38;;;;;;;0.10;0.10;;;;;;;;;;5981369;24;20020;-87
2021/11/22 02:58:04;;;;;;;0.00;0.00;;;;;;;;;;5980974;24;20155;-88
2021/11/22 03:00:30;;;;;;;0.10;0.10;;;;;;;;;;6004768;23;20050;-87
2021/11/22 03:02:56;;;;;;;0.10;0.10;;;;;;;;;;5981232;24;20019;-88
2021/11/22 03:05:23;;;;;;;0.10;0.10;;;;;;;;;;5981267;24;20016;-88
2021/11/22 03:07:50;;;;;;;0.10;0.10;;;;;;;;;;5981227;24;20016;-88
2021/11/22 03:10:16;;;;;;;0.10;0.10;;;;;;;;;;6004684;23;20016;-88
2021/11/22 03:12:42;;;;;;;0.10;0.10;;;;;;;;;;6004764;23;20019;-88
2021/11/22 03:15:12;;;;;;;0.10;0.10;;;;;;;;;;5981279;24;20012;-88
2021/11/22 03:17:38;;;;;;;0.10;0.10;;;;;;;;;;6004246;23;20450;-87
2021/11/22 03:20:05;;;;;;;0.03;0.03;;;;;;;;;;5981029;24;20443;-88
2021/11/22 03:22:31;;;;;;;0.10;0.10;;;;;;;;;;5981536;24;20087;-88
2021/11/22 03:24:56;;;;;;;0.10;0.10;;;;;;;;;;6004593;23;20441;-88
2021/11/22 03:27:22;;;;;;;0.10;0.10;;;;;;;;;;5981013;24;20320;-88
2021/11/22 03:29:49;;;;;;;0.10;0.10;;;;;;;;;;5980981;24;20119;-88
2021/11/22 03:32:15;;;;;;;0.10;0.10;;;;;;;;;;5980776;24;20160;-87
2021/11/22 03:34:41;;;;;;;0.10;0.10;;;;;;;;;;5981023;24;20115;-87
2021/11/22 03:37:08;;;;;;;0.10;0.10;;;;;;;;;;6004347;23;20072;-88
2021/11/22 03:39:34;;;;;;;0.10;0.10;;;;;;;;;;5980934;24;20342;-87
2021/11/22 03:42:03;;;;;;;0.10;0.10;;;;;;;;;;5980997;24;20083;-88
2021/11/22 03:44:29;;;;;;;0.10;0.10;;;;;;;;;;6003690;23;20087;-89
2021/11/22 03:46:56;;;;;;;0.10;0.10;;;;;;;;;;5980741;24;20160;-88
2021/11/22 03:49:22;;;;;;;0.10;0.10;;;;;;;;;;5980847;24;20023;-88
2021/11/22 03:51:48;;;;;;;0.10;0.10;;;;;;;;;;6004298;23;20059;-88
2021/11/22 03:54:14;;;;;;;0.10;0.10;;;;;;;;;;5980795;24;20035;-88
2021/11/22 03:56:42;;;;;;;0.10;0.10;;;;;;;;;;5980664;24;20024;-88
2021/11/22 03:59:08;;;;;;;0.10;0.10;;;;;;;;;;6004049;23;20020;-88
2021/11/22 04:01:34;;;;;;;0.10;0.10;;;;;;;;;;5980957;24;20016;-88
2021/11/22 04:04:00;;;;;;;0.10;0.10;;;;;;;;;;5980687;24;20020;-88
2021/11/22 04:06:26;;;;;;;0.10;0.10;;;;;;;;;;5980665;24;20035;-88
2021/11/22 04:08:52;;;;;;;0.10;0.10;;;;;;;;;;5981210;24;20043;-93
2021/11/22 04:11:18;;;;;;;0.10;0.10;;;;;;;;;;5981283;24;20023;-89
2021/11/22 04:13:44;;;;;;;0.10;0.10;;;;;;;;;;5980759;24;20020;-86
2021/11/22 04:16:11;;;;;;;0.10;0.10;;;;;;;;;;5980677;24;20020;-89
2021/11/22 04:18:37;;;;;;;0.10;0.10;;;;;;;;;;5980713;24;20027;-88
2021/11/22 04:21:03;;;;;;;0.10;0.10;;;;;;;;;;5980694;24;20068;-88
2021/11/22 04:23:29;;;;;;;0.10;0.10;;;;;;;;;;5980574;24;20359;-89
2021/11/22 04:25:55;;;;;;;0.10;0.10;;;;;;;;;;5980473;24;20016;-88
2021/11/22 04:28:21;;;;;;;0.10;0.10;;;;;;;;;;6003675;23;20020;-88
2021/11/22 04:30:47;;;;;;;0.10;0.10;;;;;;;;;;5980509;24;20422;-88
2021/11/22 04:33:14;;;;;;;0.10;0.10;;;;;;;;;;6003774;23;20068;-88
2021/11/22 04:35:40;;;;;;;0.10;0.10;;;;;;;;;;5980417;24;20019;-88
2021/11/22 04:38:06;;;;;;;0.10;0.10;;;;;;;;;;5980246;24;20518;-89
2021/11/22 04:40:32;;;;;;;0.00;0.00;;;;;;;;;;5980407;24;20091;-89
2021/11/22 04:42:58;;;;;;;0.10;0.10;;;;;;;;;;6003309;23;20035;-89
2021/11/22 04:45:29;;;;;;;0.10;0.10;;;;;;;;;;5980413;24;20024;-88
2021/11/22 04:47:56;;;;;;;0.10;0.10;;;;;;;;;;5980236;24;20423;-88
2021/11/22 04:50:22;;;;;;;0.10;0.10;;;;;;;;;;5980184;24;20023;-88
2021/11/22 04:52:48;;;;;;;0.00;0.00;;;;;;;;;;6003755;23;20099;-88
2021/11/22 04:55:15;;;;;;;0.10;0.10;;;;;;;;;;6003680;23;20102;-88
2021/11/22 04:57:41;;;;;;;0.10;0.10;;;;;;;;;;6003456;23;20024;-88
2021/11/22 05:00:08;;;;;;;0.10;0.10;;;;;;;;;;5980315;24;20096;-88
2021/11/22 05:02:34;;;;;;;0.10;0.10;;;;;;;;;;6003671;23;20016;-87
2021/11/22 05:04:59;;;;;;;0.05;0.05;;;;;;;;;;5980141;24;20109;-87
2021/11/22 05:07:25;;;;;;;0.10;0.10;;;;;;;;;;5980002;24;20027;-88
2021/11/22 05:09:51;;;;;;;0.10;0.10;;;;;;;;;;5980269;24;20425;-88
2021/11/22 05:12:17;;;;;;;0.10;0.10;;;;;;;;;;6003738;23;20016;-88
2021/11/22 05:14:44;;;;;;;0.10;0.10;;;;;;;;;;5980119;24;20095;-88
2021/11/22 05:17:10;;;;;;;0.10;0.10;;;;;;;;;;6003651;23;20096;-88
2021/11/22 05:19:36;;;;;;;0.10;0.10;;;;;;;;;;5980251;24;20020;-88
2021/11/22 05:22:02;;;;;;;0.10;0.10;;;;;;;;;;5980254;24;20016;-87
2021/11/22 05:24:28;;;;;;;0.10;0.10;;;;;;;;;;6003464;23;20012;-88
2021/11/22 05:26:54;;;;;;;0.10;0.10;;;;;;;;;;6003333;23;20019;-87
2021/11/22 05:29:20;;;;;;;0.10;0.10;;;;;;;;;;6003452;23;20102;-86
2021/11/22 05:31:46;;;;;;;0.10;0.10;;;;;;;;;;5980105;24;20023;-85
2021/11/22 05:34:12;;;;;;;0.10;0.10;;;;;;;;;;5980015;24;20412;-84
2021/11/22 05:36:38;;;;;;;0.10;0.10;;;;;;;;;;5980055;24;20048;-82
2021/11/22 05:39:04;;;;;;;0.10;0.10;;;;;;;;;;6003406;23;20008;-83
2021/11/22 05:41:30;;;;;;;0.10;0.10;;;;;;;;;;5978316;24;20466;-83
2021/11/22 05:43:56;;;;;;;0.10;0.10;;;;;;;;;;5979272;24;20048;-83
2021/11/22 05:46:22;;;;;;;0.10;0.10;;;;;;;;;;5979733;24;20020;-84
2021/11/22 05:48:48;;;;;;;0.10;0.10;;;;;;;;;;5979681;24;20088;-85
2021/11/22 05:51:15;;;;;;;0.10;0.10;;;;;;;;;;5979653;24;20095;-83
2021/11/22 05:53:42;;;;;;;0.10;0.10;;;;;;;;;;5979889;24;20052;-83
2021/11/22 05:56:08;;;;;;;0.10;0.10;;;;;;;;;;5979884;24;20020;-84
2021/11/22 05:58:34;;;;;;;0.10;0.10;;;;;;;;;;5979616;24;20016;-84
2021/11/22 06:01:01;;;;;;;0.00;0.00;;;;;;;;;;6003352;23;20027;-84
2021/11/22 06:03:27;;;;;;;0.00;0.00;;;;;;;;;;5979734;24;20092;-85
2021/11/22 06:05:53;;;;;;;0.10;0.10;;;;;;;;;;5979794;24;20462;-86
2021/11/22 06:08:19;;;;;;;0.10;0.10;;;;;;;;;;5981469;24;20071;-84
2021/11/22 06:10:46;;;;;;;0.10;0.10;;;;;;;;;;5984277;24;20027;-85
2021/11/22 06:13:12;;;;;;;0.10;0.10;;;;;;;;;;5981673;24;20305;-82
2021/11/22 06:15:39;;;;;;;0.10;0.10;;;;;;;;;;5981736;24;20023;-82
2021/11/22 06:18:05;;;;;;;0.10;0.10;;;;;;;;;;5981271;24;20020;-85
2021/11/22 06:20:31;;;;;;;0.10;0.10;;;;;;;;;;5981601;24;20016;-84
2021/11/22 06:22:57;;;;;;;0.10;0.10;;;;;;;;;;5980939;24;20020;-84
2021/11/22 06:25:23;;;;;;;0.10;0.10;;;;;;;;;;6001848;23;20024;-85
2021/11/22 06:27:49;;;;;;;0.10;0.10;;;;;;;;;;5980059;24;20024;-85
2021/11/22 06:30:15;;;;;;;0.10;0.10;;;;;;;;;;5981210;24;20039;-88
2021/11/22 06:32:41;;;;;;;0.03;0.03;;;;;;;;;;5981492;24;20016;-84
2021/11/22 06:35:07;;;;;;;0.10;0.10;;;;;;;;;;5981005;24;20055;-84
2021/11/22 06:37:34;;;;;;;0.10;0.10;;;;;;;;;;5981182;24;20476;-84
2021/11/22 06:40:00;;;;;;;0.10;0.10;;;;;;;;;;5981268;24;20068;-84
2021/11/22 06:42:26;;;;;;;0.10;0.10;;;;;;;;;;5981296;24;20052;-84
2021/11/22 06:44:52;;;;;;;0.10;0.10;;;;;;;;;;5981019;24;20016;-84
2021/11/22 06:47:18;;;;;;;0.10;0.10;;;;;;;;;;5981138;24;20016;-84
2021/11/22 06:49:44;;;;;;;0.08;0.08;;;;;;;;;;5981351;24;20020;-84
2021/11/22 06:52:10;;;;;;;0.10;0.10;;;;;;;;;;5981253;24;20051;-84
2021/11/22 06:54:36;;;;;;;0.10;0.10;;;;;;;;;;5981175;24;20020;-84
2021/11/22 06:57:03;;;;;;;0.10;0.10;;;;;;;;;;5981168;24;20024;-84
2021/11/22 06:59:29;;;;;;;0.10;0.10;;;;;;;;;;6004654;23;20020;-84
2021/11/22 07:01:55;;;;;;;0.10;0.10;;;;;;;;;;5981199;24;20023;-84
2021/11/22 07:04:21;;;;;;;0.10;0.10;;;;;;;;;;5981173;24;20024;-84
2021/11/22 07:06:47;;;;;;;0.10;0.10;;;;;;;;;;5980958;24;20016;-84
2021/11/22 07:09:14;;;;;;;0.10;0.10;;;;;;;;;;5981190;24;20016;-84
2021/11/22 07:11:40;;;;;;;0.10;0.10;;;;;;;;;;5982804;23;20374;-84
2021/11/22 07:14:07;;;;;;;0.10;0.10;;;;;;;;;;5981120;24;20051;-84
2021/11/22 07:16:33;;;;;;;0.10;0.10;;;;;;;;;;5981202;24;20035;-84
2021/11/22 07:18:59;;;;;;;0.10;0.10;;;;;;;;;;5981092;24;20052;-84
2021/11/22 07:21:25;;;;;;;0.10;0.10;;;;;;;;;;5981077;24;20017;-84
2021/11/22 07:23:51;;;;;;;0.10;0.10;;;;;;;;;;5981213;24;20024;-84
2021/11/22 07:26:17;;;;;;;0.00;0.00;;;;;;;;;;6004440;23;20023;-83
2021/11/22 07:28:43;;;;;;;0.10;0.10;;;;;;;;;;5981177;24;20327;-84
2021/11/22 07:31:09;;;;;;;0.10;0.10;;;;;;;;;;5981030;24;20076;-84
2021/11/22 07:33:35;;;;;;;0.10;0.10;;;;;;;;;;5980897;24;20016;-84
2021/11/22 07:36:01;;;;;;;0.00;0.00;;;;;;;;;;5980922;24;20028;-84
2021/11/22 07:38:27;;;;;;;0.10;0.10;;;;;;;;;;5980882;24;20103;-84
2021/11/22 07:40:53;;;;;;;0.10;0.10;;;;;;;;;;5982559;24;20526;-84
2021/11/22 07:43:19;;;;;;;0.10;0.10;;;;;;;;;;5980727;24;20016;-84
2021/11/22 07:45:45;;;;;;;0.10;0.10;;;;;;;;;;5981003;24;20343;-84
2021/11/22 07:48:12;;;;;;;0.10;0.10;;;;;;;;;;5980764;24;20031;-84
2021/11/22 07:50:38;;;;;;;0.10;0.10;;;;;;;;;;5980861;24;20023;-84
2021/11/22 07:53:04;;;;;;;0.10;0.10;;;;;;;;;;5980720;24;20466;-84
2021/11/22 07:55:30;;;;;;;0.10;0.10;;;;;;;;;;5980790;24;20031;-83
2021/11/22 07:57:59;;;;;;;0.10;0.10;;;;;;;;;;5980774;24;20027;-84
2021/11/22 08:00:25;;;;;;;0.10;0.10;;;;;;;;;;5980733;24;20016;-84
2021/11/22 08:02:51;;;;;;;0.10;0.10;;;;;;;;;;6004441;23;20012;-83
2021/11/22 08:05:17;;;;;;;0.10;0.10;;;;;;;;;;5980913;24;20035;-84
2021/11/22 08:07:43;;;;;;;0.10;0.10;;;;;;;;;;5980566;24;20019;-84
2021/11/22 08:10:26;;;;;;;0.10;0.10;;;;;;;;;;5980620;24;20703;-84
2021/11/22 08:12:53;;;;;;;0.10;0.10;;;;;;;;;;5980828;24;20023;-83
2021/11/22 08:15:19;;;;;;;0.10;0.10;;;;;;;;;;5980691;24;20023;-84
2021/11/22 08:17:46;;;;;;;0.10;0.10;;;;;;;;;;5980440;24;20071;-84
2021/11/22 08:20:12;;;;;;;0.10;0.10;;;;;;;;;;6004486;23;20008;-84
2021/11/22 08:22:38;;;;;;;0.10;0.10;;;;;;;;;;5980477;24;20016;-84
2021/11/22 08:25:07;;;;;;;0.10;0.10;;;;;;;;;;5980441;24;20016;-84
2021/11/22 08:27:33;;;;;;;0.10;0.10;;;;;;;;;;5980309;24;20023;-84
2021/11/22 08:30:15;;;;;;;0.10;0.10;;;;;;;;;;5979962;24;20020;-84
2021/11/22 08:32:41;;;;;;;0.10;0.10;;;;;;;;;;5980500;24;20020;-84
2021/11/22 08:35:08;;;;;;;0.10;0.10;;;;;;;;;;5980380;24;20052;-84
2021/11/22 08:37:34;;;;;;;0.10;0.10;;;;;;;;;;5980338;24;20343;-84
2021/11/22 08:40:00;;;;;;;0.00;0.00;;;;;;;;;;5980347;24;20091;-85
2021/11/22 08:42:26;;;;;;;0.10;0.10;;;;;;;;;;5980269;24;20091;-84
2021/11/22 08:44:52;;;;;;;0.10;0.10;;;;;;;;;;5980310;24;20403;-85
2021/11/22 08:47:19;;;;;;;0.08;0.08;;;;;;;;;;5980440;24;20442;-84
2021/11/22 08:49:45;;;;;;;0.00;0.00;;;;;;;;;;5980275;24;20045;-84
2021/11/22 08:52:11;;;;;;;0.10;0.10;;;;;;;;;;5980296;24;20016;-84
2021/11/22 08:54:37;;;;;;;0.10;0.10;;;;;;;;;;5980232;24;20024;-84
2021/11/22 08:57:03;;;;;;;0.10;0.10;;;;;;;;;;5980050;24;20080;-84
2021/11/22 08:59:29;;;;;;;0.10;0.10;;;;;;;;;;5980062;24;20031;-84
2021/11/22 09:01:55;;;;;;;0.10;0.10;;;;;;;;;;5980196;24;20044;-84
2021/11/22 09:04:24;;;;;;;0.10;0.10;;;;;;;;;;5980191;24;20092;-85
2021/11/22 09:06:49;;;;;;;0.10;0.10;;;;;;;;;;5980127;24;20363;-84
2021/11/22 09:09:16;;;;;;;0.10;0.10;;;;;;;;;;5980047;24;20027;-84
2021/11/22 09:11:43;;;;;;;0.10;0.10;;;;;;;;;;5979948;24;20031;-84
2021/11/22 09:14:09;;;;;;;0.08;0.08;;;;;;;;;;5979951;24;20020;-84
2021/11/22 09:16:35;;;;;;;0.10;0.10;;;;;;;;;;6003348;23;20096;-84
2021/11/22 09:19:01;;;;;;;0.10;0.10;;;;;;;;;;6003342;23;20020;-84
2021/11/22 09:21:27;;;;;;;0.10;0.10;;;;;;;;;;5979821;24;20012;-84
2021/11/22 09:23:53;;;;;;;0.10;0.10;;;;;;;;;;5980009;24;20012;-83
2021/11/22 09:26:19;;;;;;;0.10;0.10;;;;;;;;;;5980019;24;20027;-84
2021/11/22 09:28:45;;;;;;;0.10;0.10;;;;;;;;;;5979764;24;20013;-84
2021/11/22 09:31:11;;;;;;;0.10;0.10;;;;;;;;;;6003266;23;20020;-84
2021/11/22 09:33:39;;;;;;;0.10;0.10;;;;;;;;;;5979979;24;20020;-85
2021/11/22 09:36:05;;;;;;;0.10;0.10;;;;;;;;;;5979753;24;20020;-84
2021/11/22 09:38:31;;;;;;;0.10;0.10;;;;;;;;;;5979709;24;20027;-84
2021/11/22 09:40:58;;;;;;;0.10;0.10;;;;;;;;;;6002638;23;20080;-84
2021/11/22 09:43:24;;;;;;;0.10;0.10;;;;;;;;;;5979816;24;20031;-84
2021/11/22 09:45:51;;;;;;;0.10;0.10;;;;;;;;;;5980033;24;20534;-85
2021/11/22 09:48:17;;;;;;;0.10;0.10;;;;;;;;;;6003218;23;20047;-84
2021/11/22 09:50:43;;;;;;;0.10;0.10;;;;;;;;;;5981382;24;20020;-84
2021/11/22 09:53:09;;;;;;;0.10;0.10;;;;;;;;;;5980012;24;20343;-84
2021/11/22 09:55:35;;;;;;;0.00;0.00;;;;;;;;;;5979935;24;20020;-84
2021/11/22 09:58:02;;;;;;;0.00;0.00;;;;;;;;;;5983052;24;20136;-84
2021/11/22 10:00:34;;;;;;;0.10;0.10;;;;;;;;;;6007887;23;20072;-84
2021/11/22 10:03:01;;;;;;;0.10;0.10;;;;;;;;;;5982793;24;20036;-84
2021/11/22 10:05:33;;;;;;;0.00;0.00;;;;;;;;;;5979845;24;20020;-84
2021/11/22 10:08:00;;;;;;;0.00;0.00;;;;;;;;;;5979610;24;20016;-84
2021/11/22 10:10:30;;;;;;;0.00;0.00;;;;;;;;;;5979991;24;20012;-85
2021/11/22 10:12:58;;;;;;;0.00;0.00;;;;;;;;;;5979969;24;20123;-84
2021/11/22 10:15:24;;;;;;;0.00;0.00;;;;;;;;;;5979997;24;20016;-84
2021/11/22 10:17:50;;;;;;;0.03;0.03;;;;;;;;;;6002904;23;20020;-84
2021/11/22 10:20:17;;;;;;;0.08;0.08;;;;;;;;;;6003206;23;20012;-85
2021/11/22 10:23:04;;;;;;;0.03;0.03;;;;;;;;;;5979665;24;20069;-85
2021/11/22 10:25:35;;;;;;;0.00;0.00;;;;;;;;;;6003279;23;20016;-84
2021/11/22 10:28:06;;;;;;;0.00;0.00;;;;;;;;;;5979595;24;20016;-84
2021/11/22 10:30:32;;;;;;;0.00;0.00;;;;;;;;;;5979696;24;20015;-84
2021/11/22 10:32:59;;;;;;;0.00;0.00;;;;;;;;;;5979571;24;20016;-85
2021/11/22 10:35:25;;;;;;;0.10;0.10;;;;;;;;;;6003412;23;20012;-84
2021/11/22 10:37:57;;;;;;;0.10;0.10;;;;;;;;;;6003050;23;20020;-85
2021/11/22 10:40:25;;;;;;;0.10;0.10;;;;;;;;;;5979750;24;20463;-85
2021/11/22 10:42:51;;;;;;;0.10;0.10;;;;;;;;;;5978945;24;20016;-85
2021/11/22 10:45:27;;;;;;;0.10;0.10;;;;;;;;;;5977186;24;20020;-85
2021/11/22 10:50:54;;;;;;;0.10;0.10;;;;;;;;;;6000146;23;20020;-85
2021/11/22 10:53:30;;;;;;;0.10;0.10;;;;;;;;;;6004107;23;20024;-85
2021/11/22 10:55:56;;;;;;;0.10;0.10;;;;;;;;;;6004697;23;20087;-85
2021/11/22 10:58:41;;;;;;;0.10;0.10;;;;;;;;;;5981264;24;20489;-85
2021/11/22 11:01:18;;;;;;;0.10;0.10;;;;;;;;;;5981141;24;20016;-85
2021/11/22 11:03:51;;;;;;;0.10;0.10;;;;;;;;;;5981262;24;20180;-85
2021/11/22 11:06:17;;;;;;;0.10;0.10;;;;;;;;;;5981146;24;20016;-84
2021/11/22 11:08:45;;;;;;;0.10;0.10;;;;;;;;;;6004785;23;20079;-84
2021/11/22 11:11:11;;;;;;;0.10;0.10;;;;;;;;;;5981251;24;20087;-85
2021/11/22 11:13:44;;;;;;;0.10;0.10;;;;;;;;;;5981118;24;20028;-85
2021/11/22 11:16:10;;;;;;;0.10;0.10;;;;;;;;;;5981172;24;20020;-85
2021/11/22 11:18:36;;;;;;;0.10;0.10;;;;;;;;;;5981041;24;20017;-85
2021/11/22 11:21:02;;;;;;;0.10;0.10;;;;;;;;;;6004660;23;20023;-85
2021/11/22 11:23:28;;;;;;;0.10;0.10;;;;;;;;;;5981376;24;20016;-85
2021/11/22 11:25:54;;;;;;;0.10;0.10;;;;;;;;;;6004544;23;20017;-85
2021/11/22 11:28:20;;;;;;;0.10;0.10;;;;;;;;;;6004511;23;20273;-85
2021/11/22 11:30:46;;;;;;;0.10;0.10;;;;;;;;;;5981015;24;20095;-85
2021/11/22 11:33:13;;;;;;;0.10;0.10;;;;;;;;;;5980902;24;20016;-85
2021/11/22 11:35:44;;;;;;;0.10;0.10;;;;;;;;;;5980994;24;20068;-85
2021/11/22 11:38:19;;;;;;;0.10;0.10;;;;;;;;;;6004316;23;20024;-85
2021/11/22 11:40:45;;;;;;;0.10;0.10;;;;;;;;;;5981059;24;20023;-85
2021/11/22 11:43:24;;;;;;;0.10;0.10;;;;;;;;;;5980648;24;20465;-85
2021/11/22 11:45:55;;;;;;;0.10;0.10;;;;;;;;;;5980833;24;20028;-84
2021/11/22 11:48:39;;;;;;;0.10;0.10;;;;;;;;;;5980924;24;20016;-84
2021/11/22 11:51:06;;;;;;;0.10;0.10;;;;;;;;;;5980881;24;20024;-85
2021/11/22 11:53:33;;;;;;;0.10;0.10;;;;;;;;;;5980981;24;20024;-84
2021/11/22 11:56:07;;;;;;;0.10;0.10;;;;;;;;;;5981054;24;20016;-85
2021/11/22 11:58:33;;;;;;;0.10;0.10;;;;;;;;;;5982142;24;20388;-84
2021/11/22 12:00:59;;;;;;;0.10;0.10;;;;;;;;;;5981185;24;20063;-85
2021/11/22 12:03:26;;;;;;;0.10;0.10;;;;;;;;;;5980466;24;20075;-85
2021/11/22 12:05:53;;;;;;;0.10;0.10;;;;;;;;;;5980603;24;20254;-84
2021/11/22 12:08:29;;;;;;;0.10;0.10;;;;;;;;;;5980564;24;20020;-84
2021/11/22 12:10:56;;;;;;;0.10;0.10;;;;;;;;;;5980518;24;20515;-85
2021/11/22 12:13:22;;;;;;;0.10;0.10;;;;;;;;;;6004019;23;20023;-84
2021/11/22 12:15:48;;;;;;;0.10;0.10;;;;;;;;;;6004127;23;20094;-84
2021/11/22 12:18:28;;;;;;;0.10;0.10;;;;;;;;;;5980264;24;20091;-85
2021/11/22 12:20:57;;;;;;;0.10;0.10;;;;;;;;;;5980563;24;20074;-85
2021/11/22 12:23:25;;;;;;;0.10;0.10;;;;;;;;;;5980325;24;20044;-85
2021/11/22 12:25:55;;;;;;;0.10;0.10;;;;;;;;;;6003943;23;20008;-84
2021/11/22 12:28:22;;;;;;;0.10;0.10;;;;;;;;;;5980328;24;20107;-85
2021/11/22 12:30:49;;;;;;;0.10;0.10;;;;;;;;;;5980441;24;20017;-84
2021/11/22 12:33:24;;;;;;;0.10;0.10;;;;;;;;;;5980388;24;20031;-84
2021/11/22 12:35:51;;;;;;;0.10;0.10;;;;;;;;;;5980509;24;20016;-85
2021/11/22 12:38:21;;;;;;;0.10;0.10;;;;;;;;;;5980199;24;20092;-85
2021/11/22 12:40:48;;;;;;;0.10;0.10;;;;;;;;;;5980241;24;20027;-84
2021/11/22 12:43:14;;;;;;;0.10;0.10;;;;;;;;;;5977919;24;20023;-84
2021/11/22 12:45:55;;;;;;;0.10;0.10;;;;;;;;;;5979427;24;20024;-84
2021/11/22 12:48:41;;;;;;;0.10;0.10;;;;;;;;;;5980411;24;20439;-85
2021/11/22 12:51:08;;;;;;;0.10;0.10;;;;;;;;;;6003648;23;20473;-84
2021/11/22 12:53:34;;;;;;;0.10;0.10;;;;;;;;;;6003931;23;20095;-85
2021/11/22 12:56:00;;;;;;;0.10;0.10;;;;;;;;;;6003534;23;20024;-85
2021/11/22 12:58:26;;;;;;;0.10;0.10;;;;;;;;;;5979968;24;20031;-84
2021/11/22 13:00:53;;;;;;;0.10;0.10;;;;;;;;;;5980145;24;20095;-85
2021/11/22 13:03:19;;;;;;;0.10;0.10;;;;;;;;;;5980111;24;20012;-84
2021/11/22 13:06:02;;;;;;;0.10;0.10;;;;;;;;;;5980749;24;20312;-85
2021/11/22 13:08:34;;;;;;;0.10;0.10;;;;;;;;;;5981904;23;20027;-85
2021/11/22 13:11:11;;;;;;;0.10;0.10;;;;;;;;;;6003798;23;20055;-85
2021/11/22 13:16:03;;;;;;;0.10;0.10;;;;;;;;;;5980184;24;20024;-85
2021/11/22 13:18:33;;;;;;;0.10;0.10;;;;;;;;;;6003495;23;20020;-85
2021/11/22 13:21:01;;;;;;;0.10;0.10;;;;;;;;;;6003689;23;20443;-84
2021/11/22 13:23:28;;;;;;;0.10;0.10;;;;;;;;;;5980167;24;20047;-85
2021/11/22 13:25:55;;;;;;;0.10;0.10;;;;;;;;;;5980131;24;20035;-85
2021/11/22 13:28:21;;;;;;;0.10;0.10;;;;;;;;;;5980031;24;20026;-84
2021/11/22 13:30:47;;;;;;;0.10;0.10;;;;;;;;;;5979870;24;20024;-85
2021/11/22 13:33:13;;;;;;;0.10;0.10;;;;;;;;;;5980162;24;20050;-84
2021/11/22 13:35:39;;;;;;;0.10;0.10;;;;;;;;;;6003643;23;20073;-84
2021/11/22 13:38:06;;;;;;;0.10;0.10;;;;;;;;;;5980191;24;20024;-85
2021/11/22 13:40:32;;;;;;;0.10;0.10;;;;;;;;;;5979998;24;20513;-84
2021/11/22 13:43:06;;;;;;;0.10;0.10;;;;;;;;;;5979809;24;20046;-85
2021/11/22 13:45:32;;;;;;;0.10;0.10;;;;;;;;;;6003198;23;20043;-84
2021/11/22 13:47:59;;;;;;;0.10;0.10;;;;;;;;;;5979770;24;20023;-85
2021/11/22 13:50:27;;;;;;;0.10;0.10;;;;;;;;;;6003372;23;20104;-85
2021/11/22 13:52:53;;;;;;;0.10;0.10;;;;;;;;;;5979906;24;20452;-84
2021/11/22 13:55:19;;;;;;;0.10;0.10;;;;;;;;;;5979928;24;20012;-85
2021/11/22 13:57:45;;;;;;;0.10;0.10;;;;;;;;;;5979607;24;20017;-85
2021/11/22 14:00:11;;;;;;;0.10;0.10;;;;;;;;;;5979496;24;20465;-84
2021/11/22 14:02:37;;;;;;;0.10;0.10;;;;;;;;;;6003774;23;20023;-84
2021/11/22 14:05:04;;;;;;;0.10;0.10;;;;;;;;;;5979851;24;20008;-85
2021/11/22 14:07:50;;;;;;;0.10;0.10;;;;;;;;;;6002810;23;20067;-85
2021/11/22 14:10:16;;;;;;;0.10;0.10;;;;;;;;;;5979984;24;20089;-84
2021/11/22 14:12:42;;;;;;;0.10;0.10;;;;;;;;;;5980048;24;20020;-84
2021/11/22 14:15:21;;;;;;;0.10;0.10;;;;;;;;;;5979945;24;20043;-85
2021/11/22 14:17:48;;;;;;;0.10;0.10;;;;;;;;;;6002926;23;20016;-85
2021/11/22 14:20:15;;;;;;;0.10;0.10;;;;;;;;;;5979790;24;20024;-85
2021/11/22 14:22:53;;;;;;;0.10;0.10;;;;;;;;;;6003323;23;20012;-84
2021/11/22 14:25:23;;;;;;;0.10;0.10;;;;;;;;;;5979940;24;20479;-84
2021/11/22 14:27:50;;;;;;;0.10;0.10;;;;;;;;;;5980433;24;20433;-84
2021/11/22 14:30:16;;;;;;;0.10;0.10;;;;;;;;;;6005377;23;20099;-84
2021/11/22 14:32:44;;;;;;;0.10;0.10;;;;;;;;;;6004806;23;20024;-84
2021/11/22 14:35:28;;;;;;;0.13;0.13;;;;;;;;;;5981522;24;20028;-84
2021/11/22 14:38:13;;;;;;;0.10;0.10;;;;;;;;;;5981271;24;20057;-85
2021/11/22 14:40:40;;;;;;;0.10;0.10;;;;;;;;;;5981391;24;20391;-84
2021/11/22 14:43:13;;;;;;;0.10;0.10;;;;;;;;;;5983270;24;20034;-85
2021/11/22 14:45:39;;;;;;;;;;;;;;;;;;5981849;24;20020;-84
2021/11/22 14:48:15;;;;;;;0.10;0.10;;;;;;;;;;5981287;24;20321;-84
2021/11/22 14:50:41;;;;;;;0.10;0.10;;;;;;;;;;6005179;23;20016;-84